EDFM/MHG METAR and TAF weather

Enter ICAO airport designator
Station Type Date Time Source
EDFM METAR 2019/10/18 05:50 UTC NOAA

EDFM 180550Z 14004KT 110V170 9999 FEW049 BKN078 OVC093 14/14 Q1012


Station Type Date Time Source
EDFM Decoded METAR 2019/10/18 05:50 UTC NOAA

Baden Wurttemberg, Neuostheim, Germany (EDFM) 49-28-21N 008-30-56E
Oct 18, 2019 - 01:50 AM EDT / 2019.10.18 0550 UTC
Wind: from the SE (140 degrees) at 5 MPH (4 KT) (direction variable):0
Visibility: greater than 7 mile(s):0
Sky conditions: overcast
Temperature: 57 F (14 C)
Dew Point: 57 F (14 C)
Relative Humidity: 100%
Pressure (altimeter): 29.88 in. Hg (1012 hPa)
ob: EDFM 180550Z 14004KT 110V170 9999 FEW049 BKN078 OVC093 14/14 Q1012
cycle: 6

Station Type Date Time Source
EDFM TAF 2012/03/06 06:30 UTC NOAA

TAF EDFM 060519Z 0606/0621 15004KT 9999 FEW040

Example: see airport list